Bookmark and Share
Track history (hours):
 

Gildeskaal

Last reported at 2014-Apr-17 05:23 UTC. Time now 2014-Apr-17 06:53 UTC.
Position N 67°05' E 014°00'.

Length 52 m; draft 3.2 m.

Type: Ship. MMSI: 259680000.

NotesDate/timePositionNaut miles runAvg speedWind from/ knotsBaromVisibWave heightAir tempDewpointWater temp
2014-Apr-17 05:23N 67°05' E 014°00'3 3.6
2014-Apr-17 04:33N 67°08' E 013°59'0 0.0
2014-Apr-17 03:33N 67°08' E 013°59'0 0.0
2014-Apr-17 02:33N 67°08' E 013°59'0 0.0
2014-Apr-17 01:33N 67°08' E 013°59'0 0.0
2014-Apr-17 00:33N 67°08' E 013°59'0 0.0
2014-Apr-16 23:33N 67°08' E 013°59'0 0.0
2014-Apr-16 22:33N 67°08' E 013°59'0 0.0
2014-Apr-16 21:33N 67°08' E 013°59'0 0.0
2014-Apr-16 20:33N 67°08' E 013°59'0 0.0
2014-Apr-16 19:33N 67°08' E 013°59'3 2.6
2014-Apr-16 18:24N 67°05' E 014°00'1 0.6
2014-Apr-16 16:27N 67°06' E 013°58'2 2.3
2014-Apr-16 15:33N 67°08' E 013°59'3 1.4
2014-Apr-16 13:25N 67°05' E 014°00'3 3.5
2014-Apr-16 12:33N 67°08' E 013°59'0 0.0
2014-Apr-16 11:33N 67°08' E 013°59'2 1.0
2014-Apr-16 09:31N 67°06' E 013°58'2 2.0
2014-Apr-16 08:33N 67°08' E 013°59'3 1.0
2014-Apr-16 05:29N 67°05' E 013°60'3 3.2
2014-Apr-16 04:33N 67°08' E 013°59'0 0.0
2014-Apr-16 03:33N 67°08' E 013°59'0 0.0
2014-Apr-16 02:30N 67°08' E 013°59'0 0.0
2014-Apr-16 01:32N 67°08' E 013°59'0 0.0
2014-Apr-16 00:32N 67°08' E 013°59'0 0.0
2014-Apr-15 23:32N 67°08' E 013°59'0 0.0
2014-Apr-15 22:33N 67°08' E 013°59'0 0.0
2014-Apr-15 21:20N 67°08' E 013°59'0 0.0
2014-Apr-15 20:31N 67°08' E 013°59'0 0.0
2014-Apr-15 19:33N 67°08' E 013°59'3 2.4
2014-Apr-15 18:17N 67°05' E 014°00'1 0.7
2014-Apr-15 16:26N 67°06' E 013°58'2 2.2
2014-Apr-15 15:33N 67°08' E 013°59'0 0.0
2014-Apr-15 11:33N 67°08' E 013°59'0 0.0
2014-Apr-15 10:33N 67°08' E 013°59'2 0.9
2014-Apr-15 08:30N 67°06' E 013°58'2 2.1
2014-Apr-15 07:33N 67°08' E 013°59'1 1.2
2014-Apr-15 06:33N 67°07' E 013°59'1 0.4
2014-Apr-15 03:33N 67°08' E 013°59'0 0.0
2014-Apr-15 02:30N 67°08' E 013°59'0 0.0
2014-Apr-14 23:30N 67°08' E 013°59'3 0.4
2014-Apr-14 15:32N 67°05' E 013°60'2 0.6
2014-Apr-14 11:33N 67°08' E 013°59'1 0.4
2014-Apr-14 08:33N 67°06' E 013°58'2 1.7
2014-Apr-14 07:31N 67°08' E 013°59'2 1.8
2014-Apr-14 06:32N 67°06' E 013°59'2 0.2
2014-Apr-13 22:30N 67°08' E 013°59'0 0.0
2014-Apr-13 21:33N 67°08' E 013°59'0 0.0
2014-Apr-13 20:30N 67°08' E 013°59'0 0.0
2014-Apr-13 19:27N 67°08' E 013°59'3 1.4
2014-Apr-13 17:18N 67°05' E 013°60'2 3.0
2014-Apr-13 16:33N 67°08' E 013°59'1 0.3
2014-Apr-13 14:33N 67°08' E 013°59'2 1.7
2014-Apr-13 13:30N 67°06' E 013°58'1 0.3
2014-Apr-13 08:15N 67°05' E 014°00'2 3.3
2014-Apr-13 07:33N 67°07' E 013°59'2 0.1
2014-Apr-12 15:33N 67°05' E 013°60'1 0.2
2014-Apr-12 09:29N 67°06' E 013°58'2 2.1
2014-Apr-12 08:33N 67°08' E 013°59'1 0.7
2014-Apr-12 07:33N 67°07' E 013°59'2 2.1
2014-Apr-12 06:24N 67°05' E 013°60'3 3.7
2014-Apr-12 05:33N 67°08' E 013°59'0 0.0
2014-Apr-12 04:32N 67°08' E 013°59'0 0.0
2014-Apr-12 03:33N 67°08' E 013°59'0 0.0
2014-Apr-12 02:33N 67°08' E 013°59'0 0.0
2014-Apr-12 01:33N 67°08' E 013°59'0 0.0
2014-Apr-12 00:33N 67°08' E 013°59'0 0.0
2014-Apr-11 23:33N 67°08' E 013°59'0 0.0
2014-Apr-11 22:33N 67°08' E 013°59'0 0.0
2014-Apr-11 21:33N 67°08' E 013°59'0 0.0
2014-Apr-11 20:33N 67°08' E 013°59'0 0.0
2014-Apr-11 19:33N 67°08' E 013°59'3 0.7
2014-Apr-11 15:33N 67°05' E 013°60'0 0.1
2014-Apr-11 13:24N 67°05' E 014°00'3 3.6
2014-Apr-11 12:33N 67°08' E 013°59'0 0.0
2014-Apr-11 11:07N 67°08' E 013°59'2 1.3
2014-Apr-11 09:32N 67°06' E 013°58'2 1.9
2014-Apr-11 08:27N 67°08' E 013°59'3 1.0
2014-Apr-11 05:23N 67°05' E 014°00'3 3.7
2014-Apr-11 04:33N 67°08' E 013°59'0 0.0
2014-Apr-11 03:33N 67°08' E 013°59'0 0.0
2014-Apr-11 02:33N 67°08' E 013°59'0 0.0
2014-Apr-11 01:33N 67°08' E 013°59'0 0.0
2014-Apr-11 00:32N 67°08' E 013°59'0 0.0
2014-Apr-10 23:30N 67°08' E 013°59'0 0.0
2014-Apr-10 22:33N 67°08' E 013°59'0 0.0
2014-Apr-10 21:33N 67°08' E 013°59'0 0.0
2014-Apr-10 20:32N 67°08' E 013°59'0 0.0
2014-Apr-10 19:34N 67°08' E 013°59'3 3.0
2014-Apr-10 18:33N 67°05' E 013°60'1 0.6
2014-Apr-10 16:26N 67°06' E 013°58'2 2.2
2014-Apr-10 15:33N 67°08' E 013°59'3 1.4
2014-Apr-10 13:25N 67°05' E 014°00'3 3.6
2014-Apr-10 12:33N 67°08' E 013°59'0 0.0
2014-Apr-10 11:33N 67°08' E 013°59'2 0.9
2014-Apr-10 09:30N 67°06' E 013°58'2 2.0
2014-Apr-10 08:33N 67°08' E 013°59'3 0.9
2014-Apr-10 05:23N 67°05' E 013°60'3 3.6
2014-Apr-10 04:33N 67°08' E 013°59'0 0.0
2014-Apr-10 03:33N 67°08' E 013°59'0 0.0
2014-Apr-10 02:32N 67°08' E 013°59'0 0.0
2014-Apr-10 01:33N 67°08' E 013°59'0 0.0
2014-Apr-10 00:32N 67°08' E 013°59'0 0.0
2014-Apr-09 23:33N 67°08' E 013°59'0 0.0
2014-Apr-09 22:31N 67°08' E 013°59'0 0.0
2014-Apr-09 21:30N 67°08' E 013°59'0 0.0
2014-Apr-09 20:31N 67°08' E 013°59'0 0.0
2014-Apr-09 19:32N 67°08' E 013°59'3 2.4
2014-Apr-09 18:16N 67°05' E 014°00'1 0.7
2014-Apr-09 16:26N 67°06' E 013°58'2 2.1
2014-Apr-09 15:32N 67°08' E 013°59'3 1.4
2014-Apr-09 13:22N 67°05' E 013°60'3 3.5
2014-Apr-09 12:33N 67°08' E 013°59'0 0.0
2014-Apr-09 11:33N 67°08' E 013°59'2 1.0
2014-Apr-09 09:32N 67°06' E 013°59'2 2.1
2014-Apr-09 08:33N 67°08' E 013°59'1 1.5
2014-Apr-09 07:32N 67°07' E 013°59'2 0.7
2014-Apr-09 05:27N 67°05' E 014°00'3 3.3
2014-Apr-09 04:33N 67°08' E 013°59'0 0.0
2014-Apr-09 03:30N 67°08' E 013°59'0 0.0
2014-Apr-09 02:32N 67°08' E 013°59'0 0.0
2014-Apr-09 01:33N 67°08' E 013°59'0 0.0
2014-Apr-09 00:33N 67°08' E 013°59'0 0.0
2014-Apr-08 23:33N 67°08' E 013°59'0 0.0
2014-Apr-08 22:32N 67°08' E 013°59'0 0.0
2014-Apr-08 21:33N 67°08' E 013°59'0 0.0
2014-Apr-08 20:33N 67°08' E 013°59'0 0.0
2014-Apr-08 19:33N 67°08' E 013°59'3 2.2
2014-Apr-08 18:13N 67°05' E 014°00'1 0.3
2014-Apr-08 16:31N 67°06' E 013°59'3 2.5
2014-Apr-08 15:30N 67°08' E 013°59'3 1.4
2014-Apr-08 13:24N 67°05' E 014°00'3 3.5
2014-Apr-08 12:33N 67°08' E 013°59'0 0.0
2014-Apr-08 11:33N 67°08' E 013°59'2 0.9
2014-Apr-08 09:32N 67°06' E 013°58'2 1.8
2014-Apr-08 08:29N 67°08' E 013°59'3 1.0
2014-Apr-08 05:23N 67°05' E 014°00'3 3.7
2014-Apr-08 04:33N 67°08' E 013°59'0 0.0
2014-Apr-08 03:33N 67°08' E 013°59'0 0.0
2014-Apr-08 02:33N 67°08' E 013°59'0 0.0
2014-Apr-08 01:32N 67°08' E 013°59'0 0.0
2014-Apr-08 00:31N 67°08' E 013°59'0 0.0
2014-Apr-07 23:33N 67°08' E 013°59'0 0.0
2014-Apr-07 22:33N 67°08' E 013°59'0 0.0
2014-Apr-07 21:32N 67°08' E 013°59'0 0.0
2014-Apr-07 20:32N 67°08' E 013°59'0 0.0
2014-Apr-07 19:33N 67°08' E 013°59'3 1.0
2014-Apr-07 16:33N 67°05' E 013°60'3 2.9
2014-Apr-07 15:33N 67°08' E 013°59'0 0.0
2014-Apr-07 12:33N 67°08' E 013°59'2 0.8
2014-Apr-07 09:32N 67°06' E 013°59'  

Dump ship's entire track history

sailing weather and tide predictions

Gildeskaal — LLDI — position and weather